Time;durP1;ratioP1;P1;durP2;ratioP2;P2;SDS_P1;SDS_P2;PMS_P1;PMS_P2;Temp;Humidity;BMP_temperature;BMP_pressure;BME280_temperature;BME280_humidity;BME280_pressure;Samples;Min_cycle;Max_cycle;Signal;HPM_P1;HPM_P2
2023/10/31 06:09:40;;;;;;;6.85;2.25;;;21.40;1.00;;;;;;5931010;24;20683;-84
2023/10/31 09:38:27;;;;;;;18.23;5.38;;;23.80;1.00;;;;;;6281849;22;20034;-77
2023/10/31 09:40:55;;;;;;;22.98;5.75;;;23.90;1.00;;;;;;6314207;22;20019;-78
2023/10/31 09:43:23;;;;;;;35.67;7.28;;;23.90;1.00;;;;;;6276846;22;20015;-78
2023/10/31 09:45:51;;;;;;;20.45;5.93;;;24.00;1.00;;;;;;6314818;22;20015;-78
2023/10/31 09:48:19;;;;;;;20.33;5.70;;;24.10;1.00;;;;;;6271566;22;20012;-79
2023/10/31 09:50:47;;;;;;;27.27;5.70;;;24.10;1.00;;;;;;6246104;22;20676;-78
2023/10/31 09:53:16;;;;;;;17.85;6.32;;;24.10;1.00;;;;;;6284043;22;20019;-79
2023/10/31 09:55:46;;;;;;;20.35;6.63;;;24.20;1.00;;;;;;6246251;22;20046;-81
2023/10/31 09:58:14;;;;;;;20.80;6.32;;;24.20;1.00;;;;;;6245500;22;20505;-78
2023/10/31 10:00:43;;;;;;;22.70;6.60;;;24.30;1.00;;;;;;6246006;22;20015;-78
2023/10/31 10:03:11;;;;;;;21.33;6.57;;;24.40;1.00;;;;;;6246472;22;20081;-77
2023/10/31 10:05:41;;;;;;;24.52;8.45;;;24.50;1.00;;;;;;6246575;22;20103;-78
2023/10/31 10:08:09;;;;;;;24.45;6.78;;;24.50;1.00;;;;;;6245763;22;20023;-78
2023/10/31 10:10:37;;;;;;;21.63;7.45;;;24.50;1.00;;;;;;6246151;22;20012;-76
2023/10/31 10:13:06;;;;;;;19.50;6.15;;;24.60;1.00;;;;;;6283315;22;20193;-78
2023/10/31 10:15:45;;;;;;;15.85;5.18;;;24.70;1.00;;;;;;6246524;22;20363;-77
2023/10/31 10:18:26;;;;;;;19.05;5.65;;;24.70;1.00;;;;;;6245576;22;20098;-78
2023/10/31 10:20:58;;;;;;;18.95;4.57;;;24.80;1.00;;;;;;6246177;22;20023;-78
2023/10/31 10:23:26;;;;;;;22.33;6.18;;;24.80;1.00;;;;;;6246051;22;20039;-77
2023/10/31 10:25:56;;;;;;;17.35;4.53;;;24.80;1.00;;;;;;6283909;22;20015;-78
2023/10/31 10:28:25;;;;;;;18.30;5.03;;;24.90;1.00;;;;;;6246017;22;20337;-80
2023/10/31 10:30:54;;;;;;;17.38;5.65;;;24.80;1.00;;;;;;6246668;22;20077;-79
2023/10/31 10:33:22;;;;;;;19.23;5.72;;;24.90;1.00;;;;;;6247028;22;20103;-78
2023/10/31 10:35:50;;;;;;;19.08;5.93;;;24.90;1.00;;;;;;6247323;22;20018;-80
2023/10/31 10:38:19;;;;;;;21.40;4.88;;;24.80;1.00;;;;;;6245882;22;20058;-78
2023/10/31 10:40:49;;;;;;;21.65;6.05;;;24.80;1.00;;;;;;6245991;22;20020;-77
2023/10/31 10:43:22;;;;;;;20.65;6.00;;;24.80;1.00;;;;;;6246006;22;20027;-78
2023/10/31 10:45:56;;;;;;;13.02;4.13;;;24.80;1.00;;;;;;6283869;22;20490;-78
2023/10/31 10:48:25;;;;;;;15.25;4.18;;;24.80;1.00;;;;;;6245374;22;20102;-79
2023/10/31 10:51:09;;;;;;;18.63;3.85;;;24.80;1.00;;;;;;6283511;22;20084;-79
2023/10/31 10:53:43;;;;;;;20.02;5.13;;;24.80;1.00;;;;;;6245584;22;20329;-79
2023/10/31 10:56:26;;;;;;;20.13;4.03;;;24.90;1.00;;;;;;6245746;22;20012;-79
2023/10/31 10:59:02;;;;;;;16.75;4.10;;;24.80;1.00;;;;;;6282462;22;20015;-79
2023/10/31 11:01:33;;;;;;;17.85;3.88;;;24.80;1.00;;;;;;6245550;22;20034;-78
2023/10/31 11:04:01;;;;;;;17.58;5.15;;;24.90;1.00;;;;;;6282663;22;20016;-79
2023/10/31 11:06:31;;;;;;;16.98;5.43;;;24.90;1.00;;;;;;6246294;22;20015;-79
2023/10/31 11:08:59;;;;;;;16.25;5.22;;;24.90;1.00;;;;;;6247236;22;20019;-78
2023/10/31 11:11:28;;;;;;;12.82;4.70;;;24.90;1.00;;;;;;6246018;22;20381;-77
2023/10/31 11:13:59;;;;;;;17.08;4.82;;;25.00;1.00;;;;;;6246177;22;20466;-78
2023/10/31 11:16:36;;;;;;;13.70;4.70;;;25.10;1.00;;;;;;6245291;22;20020;-79
2023/10/31 11:19:04;;;;;;;16.33;4.88;;;25.20;1.00;;;;;;6284553;22;20015;-79
2023/10/31 11:21:33;;;;;;;10.82;3.15;;;25.20;1.00;;;;;;6247584;22;20016;-78
2023/10/31 11:24:01;;;;;;;18.70;4.50;;;25.40;1.00;;;;;;6250171;22;20383;-77
2023/10/31 11:26:32;;;;;;;12.25;4.18;;;25.40;1.00;;;;;;6251175;22;20015;-79
2023/10/31 11:29:05;;;;;;;13.05;4.60;;;25.40;1.00;;;;;;6247424;22;20024;-79
2023/10/31 11:31:35;;;;;;;19.02;5.15;;;25.30;1.00;;;;;;6285158;22;20031;-80
2023/10/31 11:34:03;;;;;;;23.10;6.25;;;25.40;1.00;;;;;;6247881;22;20016;-79
2023/10/31 11:36:34;;;;;;;23.17;7.95;;;25.50;1.00;;;;;;6246984;22;20012;-79
2023/10/31 11:39:15;;;;;;;25.25;9.77;;;25.60;1.00;;;;;;6269112;22;20017;-78
2023/10/31 11:41:50;;;;;;;22.50;10.73;;;25.70;1.00;;;;;;6233677;23;20019;-79
2023/10/31 11:44:18;;;;;;;23.40;9.18;;;25.80;1.00;;;;;;6242395;23;20035;-79
2023/10/31 11:46:50;;;;;;;18.88;8.15;;;25.70;1.00;;;;;;6240714;23;20012;-79
2023/10/31 11:49:18;;;;;;;22.63;7.65;;;25.60;1.00;;;;;;6216686;23;20028;-78
2023/10/31 11:51:47;;;;;;;24.80;8.20;;;25.40;1.00;;;;;;6254216;23;20016;-78
2023/10/31 11:54:16;;;;;;;19.58;9.35;;;25.40;1.00;;;;;;6217009;23;20024;-76
2023/10/31 11:56:51;;;;;;;21.48;8.02;;;25.40;1.00;;;;;;6215810;23;20357;-78
2023/10/31 11:59:19;;;;;;;21.95;8.32;;;25.30;1.00;;;;;;6217641;23;20016;-79
2023/10/31 12:01:48;;;;;;;27.65;8.15;;;25.20;1.00;;;;;;6216897;23;20074;-79
2023/10/31 12:04:25;;;;;;;27.65;9.65;;;25.30;1.00;;;;;;6217155;23;20020;-79
2023/10/31 12:07:00;;;;;;;28.73;13.20;;;25.40;1.00;;;;;;6241446;23;20436;-79
2023/10/31 12:09:28;;;;;;;34.47;19.10;;;25.50;1.00;;;;;;6217017;23;20112;-79
2023/10/31 12:11:56;;;;;;;25.25;13.02;;;25.50;1.00;;;;;;6253935;23;20016;-79
2023/10/31 12:14:24;;;;;;;23.40;10.27;;;25.50;1.00;;;;;;6216788;23;20348;-79
2023/10/31 12:16:55;;;;;;;32.20;11.13;;;25.60;1.00;;;;;;6216824;23;20435;-78
2023/10/31 12:19:24;;;;;;;30.17;12.95;;;25.80;1.00;;;;;;6228336;23;20020;-79
2023/10/31 12:21:52;;;;;;;28.65;11.70;;;25.90;1.00;;;;;;6272331;22;20102;-79
2023/10/31 12:24:20;;;;;;;17.17;6.60;;;26.10;1.00;;;;;;6309061;22;20283;-79
2023/10/31 12:26:48;;;;;;;22.08;8.07;;;26.30;1.00;;;;;;6276952;22;20050;-79
2023/10/31 12:29:18;;;;;;;17.08;5.18;;;26.40;1.00;;;;;;6315608;22;20011;-78
2023/10/31 12:31:47;;;;;;;17.77;5.28;;;26.20;1.00;;;;;;6315335;22;20015;-78
2023/10/31 12:34:18;;;;;;;15.70;5.18;;;26.10;1.00;;;;;;6315281;22;20031;-78
2023/10/31 12:36:47;;;;;;;16.30;6.40;;;26.10;1.00;;;;;;6276720;22;20084;-78
2023/10/31 12:39:16;;;;;;;12.60;4.78;;;26.00;1.00;;;;;;6276859;22;20015;-81
2023/10/31 12:41:45;;;;;;;16.63;4.38;;;26.10;1.00;;;;;;6278115;22;20043;-78
2023/10/31 12:44:17;;;;;;;15.68;4.40;;;26.10;1.00;;;;;;6278884;22;20021;-79
2023/10/31 12:46:47;;;;;;;15.40;4.88;;;26.10;1.00;;;;;;6277608;22;20027;-79
2023/10/31 12:49:20;;;;;;;13.05;4.80;;;26.10;1.00;;;;;;6277688;22;20019;-79
2023/10/31 12:51:59;;;;;;;15.40;4.50;;;26.20;1.00;;;;;;6277959;22;20371;-79
2023/10/31 12:54:31;;;;;;;16.67;4.13;;;26.20;1.00;;;;;;6314698;22;20015;-78
2023/10/31 12:57:01;;;;;;;11.38;4.05;;;26.10;1.00;;;;;;6314787;22;20011;-79
2023/10/31 12:59:29;;;;;;;20.95;5.28;;;26.10;1.00;;;;;;6279525;22;20544;-79
2023/10/31 13:01:56;;;;;;;14.32;4.63;;;26.00;1.00;;;;;;6275926;22;20023;-79
2023/10/31 13:04:32;;;;;;;12.52;3.95;;;26.00;1.00;;;;;;6276417;22;20015;-79
2023/10/31 13:07:01;;;;;;;15.35;4.47;;;26.00;1.00;;;;;;6276242;22;20336;-78
2023/10/31 13:09:32;;;;;;;15.93;3.85;;;26.10;1.00;;;;;;6277365;22;20038;-77
2023/10/31 13:12:01;;;;;;;14.45;4.32;;;26.10;1.00;;;;;;6277271;22;20454;-78
2023/10/31 13:14:29;;;;;;;14.60;3.35;;;26.10;1.00;;;;;;6277985;22;20505;-78
2023/10/31 13:16:57;;;;;;;10.63;3.08;;;26.10;1.00;;;;;;6276678;22;20031;-79
2023/10/31 13:19:24;;;;;;;13.20;2.85;;;26.10;1.00;;;;;;6276904;22;20023;-77
2023/10/31 13:21:53;;;;;;;10.23;3.88;;;26.00;1.00;;;;;;6277253;22;20023;-79
2023/10/31 13:24:22;;;;;;;15.68;3.22;;;26.00;1.00;;;;;;6304222;22;20015;-78
2023/10/31 13:26:51;;;;;;;10.63;3.17;;;25.90;1.00;;;;;;6276248;22;20011;-79
2023/10/31 13:29:19;;;;;;;9.70;2.88;;;25.70;1.00;;;;;;6277198;22;20058;-79
2023/10/31 13:31:46;;;;;;;9.57;2.40;;;25.70;1.00;;;;;;6314974;22;20436;-79
2023/10/31 13:34:14;;;;;;;11.75;2.70;;;25.70;1.00;;;;;;6276828;22;20042;-79
2023/10/31 13:36:42;;;;;;;10.95;2.72;;;25.70;1.00;;;;;;6302204;22;20015;-79
2023/10/31 13:39:11;;;;;;;10.90;2.78;;;25.70;1.00;;;;;;6276119;22;20073;-80
2023/10/31 13:41:39;;;;;;;11.23;2.60;;;25.60;1.00;;;;;;6313911;22;20022;-80
2023/10/31 13:44:07;;;;;;;10.43;2.88;;;25.60;1.00;;;;;;6276125;22;20065;-78
2023/10/31 13:46:34;;;;;;;12.80;3.20;;;25.40;1.00;;;;;;6276439;22;20023;-79
2023/10/31 13:49:03;;;;;;;10.50;3.75;;;25.30;1.00;;;;;;6276189;22;20015;-80
2023/10/31 13:51:31;;;;;;;12.52;3.38;;;25.10;1.00;;;;;;6276874;22;20038;-78
2023/10/31 13:53:58;;;;;;;12.35;2.92;;;25.00;1.00;;;;;;6277359;22;20030;-79
2023/10/31 13:56:27;;;;;;;9.55;3.30;;;25.00;1.00;;;;;;6276112;22;20560;-79
2023/10/31 13:58:55;;;;;;;12.20;3.88;;;25.00;1.00;;;;;;6314398;22;20011;-78
2023/10/31 14:01:24;;;;;;;10.70;3.90;;;24.90;1.00;;;;;;6302483;22;20039;-79
2023/10/31 14:03:52;;;;;;;12.88;4.45;;;24.80;1.00;;;;;;6275933;22;20457;-79
2023/10/31 14:06:19;;;;;;;13.30;3.92;;;24.70;1.00;;;;;;6275962;22;20030;-78
2023/10/31 14:08:47;;;;;;;12.32;4.10;;;24.70;1.00;;;;;;6276691;22;20023;-79
2023/10/31 14:11:15;;;;;;;9.55;3.42;;;24.70;1.00;;;;;;6276394;22;20378;-79
2023/10/31 14:13:45;;;;;;;10.73;4.05;;;24.70;1.00;;;;;;6276598;22;20344;-78
2023/10/31 14:16:13;;;;;;;16.55;6.03;;;24.70;1.00;;;;;;6276223;22;20114;-77
2023/10/31 14:18:40;;;;;;;12.57;4.05;;;24.70;1.00;;;;;;6313917;22;20015;-78
2023/10/31 14:21:08;;;;;;;13.65;4.90;;;24.60;1.00;;;;;;6314050;22;20043;-78
2023/10/31 14:23:36;;;;;;;13.55;4.40;;;24.40;1.00;;;;;;6276612;22;20081;-78
2023/10/31 14:26:04;;;;;;;14.98;4.72;;;24.10;1.00;;;;;;6275642;22;20027;-79
2023/10/31 14:28:32;;;;;;;13.52;5.03;;;23.60;1.00;;;;;;6275112;22;20635;-79
2023/10/31 14:31:01;;;;;;;10.98;4.00;;;23.40;1.00;;;;;;6274828;22;20168;-79
2023/10/31 14:33:30;;;;;;;10.48;4.18;;;23.20;1.00;;;;;;6276939;22;20012;-78
2023/10/31 14:35:58;;;;;;;10.50;3.85;;;23.10;1.00;;;;;;6275122;22;20023;-79
2023/10/31 14:38:25;;;;;;;13.45;4.30;;;22.90;1.00;;;;;;6312808;22;20400;-79
2023/10/31 14:40:53;;;;;;;17.60;4.70;;;22.70;1.00;;;;;;6276231;22;20390;-78
2023/10/31 14:43:20;;;;;;;11.65;4.70;;;22.70;1.00;;;;;;6313700;22;20451;-79
2023/10/31 14:45:48;;;;;;;11.93;5.00;;;22.60;1.00;;;;;;6314217;22;20082;-78
2023/10/31 14:48:17;;;;;;;12.27;5.82;;;22.40;1.00;;;;;;6313464;22;20011;-78
2023/10/31 14:50:44;;;;;;;9.50;4.28;;;22.30;1.00;;;;;;6315615;22;20073;-79
2023/10/31 14:53:12;;;;;;;16.65;4.72;;;22.10;1.00;;;;;;6279089;22;20015;-77
2023/10/31 14:55:40;;;;;;;13.63;6.18;;;21.90;1.00;;;;;;6315334;22;20474;-78
2023/10/31 14:58:08;;;;;;;16.38;5.55;;;21.80;1.00;;;;;;6275143;22;20114;-78
2023/10/31 15:00:36;;;;;;;16.15;6.85;;;21.70;1.00;;;;;;6280489;22;20026;-78
2023/10/31 15:03:04;;;;;;;12.65;5.40;;;21.60;1.00;;;;;;6279511;22;20348;-79
2023/10/31 15:05:33;;;;;;;13.20;4.70;;;21.60;1.00;;;;;;6279188;22;20034;-79
2023/10/31 15:08:02;;;;;;;11.05;4.28;;;21.60;1.00;;;;;;6280268;22;20113;-79
2023/10/31 15:10:30;;;;;;;10.90;4.63;;;21.60;1.00;;;;;;6276284;22;20019;-77
2023/10/31 15:12:58;;;;;;;9.30;3.42;;;21.70;1.00;;;;;;6277439;22;20015;-79
2023/10/31 15:15:25;;;;;;;8.63;3.42;;;21.80;1.00;;;;;;6314522;22;20355;-77
2023/10/31 15:17:53;;;;;;;9.48;4.40;;;21.70;1.00;;;;;;6277968;22;20042;-80
2023/10/31 15:20:21;;;;;;;6.03;2.90;;;21.80;1.00;;;;;;6277432;22;20157;-79
2023/10/31 15:22:50;;;;;;;12.02;6.57;;;21.80;1.00;;;;;;6276867;22;20030;-79
2023/10/31 15:25:17;;;;;;;10.82;4.28;;;21.80;1.00;;;;;;6276949;22;20015;-78
2023/10/31 15:27:45;;;;;;;11.93;5.63;;;21.80;1.00;;;;;;6276857;22;20081;-79
2023/10/31 15:30:13;;;;;;;12.55;6.03;;;21.80;1.00;;;;;;6275964;22;20019;-78
2023/10/31 15:32:41;;;;;;;13.90;5.68;;;21.80;1.00;;;;;;6276749;22;20458;-79
2023/10/31 15:35:09;;;;;;;7.47;2.90;;;21.80;1.00;;;;;;6278203;22;20462;-79
2023/10/31 15:37:37;;;;;;;8.13;2.50;;;21.80;1.00;;;;;;6277523;22;20305;-79
2023/10/31 15:40:09;;;;;;;6.13;2.20;;;21.70;1.00;;;;;;6276893;22;20092;-78
2023/10/31 15:42:36;;;;;;;7.55;2.20;;;21.70;1.00;;;;;;6274962;22;20027;-79
2023/10/31 15:45:05;;;;;;;11.07;2.80;;;21.70;1.00;;;;;;6274538;22;20023;-79
2023/10/31 15:47:33;;;;;;;7.13;1.98;;;21.60;1.00;;;;;;6312681;22;20045;-79
2023/10/31 15:50:01;;;;;;;8.10;2.17;;;21.60;1.00;;;;;;6276987;22;20109;-79
2023/10/31 15:52:29;;;;;;;5.05;2.20;;;21.50;1.00;;;;;;6313730;22;20309;-79
2023/10/31 15:54:57;;;;;;;5.53;2.20;;;21.40;1.00;;;;;;6277183;22;20029;-78
2023/10/31 15:57:26;;;;;;;9.10;2.92;;;21.40;1.00;;;;;;6276309;22;20011;-78
2023/10/31 15:59:58;;;;;;;10.95;3.65;;;21.40;1.00;;;;;;6278071;22;20084;-78
2023/10/31 16:02:26;;;;;;;9.45;2.60;;;21.30;1.00;;;;;;6280633;22;20257;-79
2023/10/31 16:04:53;;;;;;;7.63;3.10;;;21.30;1.00;;;;;;6282095;22;20026;-79
2023/10/31 16:07:21;;;;;;;10.27;4.18;;;21.40;1.00;;;;;;6315382;22;20022;-79
2023/10/31 16:09:49;;;;;;;9.20;4.13;;;21.30;1.00;;;;;;6314140;22;20482;-78
2023/10/31 16:12:18;;;;;;;7.60;3.08;;;21.30;1.00;;;;;;6278138;22;20110;-77
2023/10/31 16:14:47;;;;;;;9.93;4.13;;;21.20;1.00;;;;;;6278303;22;20019;-79
2023/10/31 16:17:15;;;;;;;11.57;5.22;;;21.20;1.00;;;;;;6277958;22;20019;-79
2023/10/31 16:19:43;;;;;;;11.35;5.53;;;21.10;1.00;;;;;;6276882;22;20374;-81
2023/10/31 16:22:17;;;;;;;17.50;9.85;;;21.00;1.00;;;;;;6303913;22;20442;-80
2023/10/31 16:24:44;;;;;;;16.33;9.48;;;20.90;1.00;;;;;;6277424;22;20055;-78
2023/10/31 16:27:12;;;;;;;21.77;12.38;;;20.70;1.00;;;;;;6278692;22;20020;-80
2023/10/31 16:29:40;;;;;;;19.80;10.98;;;20.30;99.90;;;;;;6287182;22;20210;-79
2023/10/31 16:32:09;;;;;;;20.67;13.43;;;20.10;99.90;;;;;;6315760;22;20047;-80
2023/10/31 16:34:36;;;;;;;25.35;13.40;;;20.00;1.00;;;;;;6284065;22;20065;-77
2023/10/31 16:37:05;;;;;;;22.35;12.75;;;19.90;1.00;;;;;;6278590;22;20020;-79
2023/10/31 16:39:34;;;;;;;22.52;14.70;;;19.80;1.00;;;;;;6277936;22;20038;-80
2023/10/31 16:42:02;;;;;;;33.85;19.33;;;19.70;1.00;;;;;;6277441;22;20102;-81
2023/10/31 16:44:29;;;;;;;28.67;17.35;;;19.50;1.00;;;;;;6278174;22;20123;-80
2023/10/31 16:46:57;;;;;;;31.10;18.83;;;19.50;99.90;;;;;;6277671;22;20159;-80
2023/10/31 16:49:28;;;;;;;30.08;20.05;;;19.30;1.00;;;;;;6278120;22;20016;-79
2023/10/31 16:51:56;;;;;;;31.48;21.65;;;19.30;99.90;;;;;;6316138;22;20098;-80
2023/10/31 16:54:24;;;;;;;27.02;19.20;;;19.30;1.00;;;;;;6316344;22;20039;-80
2023/10/31 16:56:52;;;;;;;34.58;26.48;;;19.20;99.90;;;;;;6315638;22;20019;-80
2023/10/31 16:59:19;;;;;;;32.10;20.80;;;19.20;1.00;;;;;;6278658;22;20190;-81
2023/10/31 17:01:47;;;;;;;32.30;24.75;;;19.20;99.90;;;;;;6278662;22;20359;-82
2023/10/31 17:04:15;;;;;;;29.25;22.80;;;19.20;1.00;;;;;;6278547;22;20034;-81
2023/10/31 17:06:47;;;;;;;31.13;21.60;;;19.20;1.00;;;;;;6303204;22;20019;-81
2023/10/31 17:09:15;;;;;;;34.50;26.33;;;19.10;1.00;;;;;;6279374;22;20019;-82
2023/10/31 17:11:45;;;;;;;33.95;25.02;;;19.00;1.00;;;;;;6278740;22;20015;-82
2023/10/31 17:14:13;;;;;;;35.75;25.33;;;19.00;99.90;;;;;;6279004;22;20045;-81
2023/10/31 17:16:40;;;;;;;36.88;24.65;;;18.90;1.00;;;;;;6279581;22;20015;-82
2023/10/31 17:19:08;;;;;;;35.20;23.55;;;18.80;1.00;;;;;;6278277;22;20046;-82
2023/10/31 17:21:37;;;;;;;31.25;21.58;;;18.80;1.00;;;;;;6278357;22;20079;-80
2023/10/31 17:24:09;;;;;;;34.03;24.35;;;18.80;99.90;;;;;;6277960;22;20021;-81
2023/10/31 17:26:37;;;;;;;42.65;29.73;;;18.90;99.90;;;;;;6277812;22;20023;-82
2023/10/31 17:29:05;;;;;;;42.15;32.25;;;18.80;1.00;;;;;;6303665;22;20018;-81
2023/10/31 17:31:34;;;;;;;51.53;37.60;;;18.80;1.00;;;;;;6316041;22;20090;-81
2023/10/31 17:34:02;;;;;;;56.85;40.28;;;18.80;1.00;;;;;;6277658;22;20041;-80
2023/10/31 17:36:30;;;;;;;64.32;45.45;;;18.70;1.00;;;;;;6315301;22;20019;-80
2023/10/31 17:38:57;;;;;;;67.00;48.38;;;18.60;1.00;;;;;;6277910;22;20019;-79
2023/10/31 17:41:27;;;;;;;54.08;39.42;;;18.60;99.90;;;;;;6278184;22;20066;-80
2023/10/31 17:43:54;;;;;;;51.75;38.58;;;18.60;1.00;;;;;;6278498;22;20042;-80
2023/10/31 17:46:25;;;;;;;43.58;29.35;;;18.50;1.00;;;;;;6315029;22;20015;-80
2023/10/31 17:48:53;;;;;;;57.63;36.30;;;18.40;1.00;;;;;;6277647;22;20370;-81
2023/10/31 17:51:21;;;;;;;52.47;34.80;;;18.20;1.00;;;;;;6315541;22;20076;-80
2023/10/31 17:53:49;;;;;;;53.10;35.42;;;18.10;1.00;;;;;;6278546;22;20370;-79
2023/10/31 17:56:17;;;;;;;52.45;36.25;;;17.90;1.00;;;;;;6278077;22;20520;-80
2023/10/31 17:58:46;;;;;;;47.35;33.75;;;17.70;99.90;;;;;;6277681;22;20615;-80
2023/10/31 18:01:13;;;;;;;47.22;31.73;;;17.60;1.00;;;;;;6277051;22;20076;-78
2023/10/31 18:03:41;;;;;;;52.05;31.88;;;17.50;99.90;;;;;;6277775;22;20011;-79
2023/10/31 18:06:09;;;;;;;43.03;28.48;;;17.40;23.20;;;;;;6277010;22;20011;-80
2023/10/31 18:08:37;;;;;;;43.17;28.95;;;17.20;1.00;;;;;;6277565;22;20026;-80
2023/10/31 18:11:05;;;;;;;34.42;21.70;;;17.20;1.00;;;;;;6276887;22;20011;-81
2023/10/31 18:13:33;;;;;;;32.60;20.60;;;17.20;99.90;;;;;;6277685;22;20026;-80
2023/10/31 18:16:02;;;;;;;35.80;21.52;;;17.10;99.90;;;;;;6313727;22;20477;-81
2023/10/31 18:18:30;;;;;;;32.88;20.48;;;17.00;99.90;;;;;;6270830;22;20050;-80
2023/10/31 18:21:01;;;;;;;33.25;20.20;;;17.00;1.00;;;;;;6283461;22;20016;-81
2023/10/31 18:23:28;;;;;;;33.83;20.05;;;16.80;99.90;;;;;;6283732;22;20011;-81
2023/10/31 18:25:57;;;;;;;32.65;21.70;;;16.70;1.00;;;;;;6284092;22;20012;-80
2023/10/31 18:28:25;;;;;;;32.03;20.70;;;16.60;1.00;;;;;;6283214;22;20012;-80
2023/10/31 18:30:53;;;;;;;39.17;24.25;;;16.50;99.90;;;;;;6272095;22;20099;-80
2023/10/31 18:33:22;;;;;;;35.15;20.02;;;16.50;1.00;;;;;;6272002;22;20028;-80
2023/10/31 18:35:50;;;;;;;35.47;20.70;;;16.40;1.00;;;;;;6272414;22;20054;-80
2023/10/31 18:38:18;;;;;;;29.85;19.58;;;16.20;1.00;;;;;;6271826;22;20020;-81
2023/10/31 18:40:46;;;;;;;31.13;18.80;;;16.10;1.00;;;;;;6272027;22;20103;-79
2023/10/31 18:43:22;;;;;;;34.30;19.75;;;16.00;1.00;;;;;;6284006;22;20436;-79
2023/10/31 18:45:49;;;;;;;36.28;22.83;;;15.80;99.90;;;;;;6282793;22;20077;-79
2023/10/31 18:48:17;;;;;;;42.40;24.65;;;15.70;99.90;;;;;;6274747;22;20420;-78
2023/10/31 18:50:51;;;;;;;44.58;26.17;;;15.70;99.90;;;;;;6284782;22;20035;-81
2023/10/31 18:54:13;;;;;;;;;;;;;;;;;;;;;
2023/10/31 18:56:57;;;;;;;36.63;23.80;;;15.70;99.90;;;;;;6272670;22;20020;-80
2023/10/31 18:59:30;;;;;;;43.40;27.80;;;15.60;99.90;;;;;;6272157;22;20436;-80
2023/10/31 19:02:06;;;;;;;46.45;28.90;;;15.50;99.90;;;;;;6285649;22;20007;-80
2023/10/31 19:05:01;;;;;;;43.50;27.58;;;15.50;99.90;;;;;;6273205;22;20106;-80
2023/10/31 19:07:51;;;;;;;41.50;25.08;;;15.40;99.90;;;;;;6274671;22;20023;-81
2023/10/31 19:22:37;;;;;;;48.38;31.65;;;15.20;99.90;;;;;;6205457;22;20034;-82
2023/10/31 19:25:44;;;;;;;54.35;30.80;;;15.20;99.90;;;;;;6294225;22;20019;-81
2023/10/31 19:28:11;;;;;;;;;;;15.10;49.70;;;;;;6265006;22;20027;-83
2023/10/31 19:30:39;;;;;;;53.03;35.08;;;15.10;92.20;;;;;;6342538;22;19903;-83
2023/10/31 19:33:08;;;;;;;60.63;39.67;;;15.20;1.00;;;;;;6304459;22;19999;-79
2023/10/31 19:35:36;;;;;;;55.45;34.65;;;15.10;1.00;;;;;;6292134;22;20021;-81
2023/10/31 19:39:24;;;;;;;55.35;35.70;;;14.90;1.00;;;;;;6283955;22;20494;-80
2023/10/31 19:42:11;;;;;;;48.67;30.52;;;14.90;1.00;;;;;;6242246;22;20025;-81
2023/10/31 19:44:44;;;;;;;;;;;14.70;1.00;;;;;;6282734;22;20379;-79
2023/10/31 19:47:37;;;;;;;51.63;30.42;;;14.60;1.00;;;;;;6282382;22;19976;-82
2023/10/31 19:50:13;;;;;;;53.60;33.97;;;14.50;81.80;;;;;;6323577;22;20016;-82
2023/10/31 19:53:09;;;;;;;51.38;32.80;;;14.60;1.00;;;;;;6309347;22;20011;-83
2023/10/31 19:55:54;;;;;;;58.53;37.58;;;14.60;1.00;;;;;;6286954;22;20064;-82
2023/10/31 19:58:34;;;;;;;67.22;41.58;;;14.50;1.00;;;;;;6284556;22;20035;-85
2023/10/31 20:01:35;;;;;;;49.22;32.33;;;14.30;1.00;;;;;;6287642;22;20026;-84
2023/10/31 20:07:04;;;;;;;52.08;33.38;;;14.10;9.30;;;;;;6308251;22;20015;-83
2023/10/31 20:09:42;;;;;;;48.17;26.90;;;14.00;99.90;;;;;;6293079;22;20072;-81
2023/10/31 20:12:15;;;;;;;64.05;38.65;;;13.90;99.90;;;;;;6280882;22;20581;-80
2023/10/31 20:15:09;;;;;;;62.50;38.50;;;13.80;99.90;;;;;;6279567;22;20042;-83
2023/10/31 20:17:47;;;;;;;71.28;43.90;;;13.70;99.90;;;;;;6278888;22;20011;-82
2023/10/31 20:20:15;;;;;;;53.75;33.20;;;13.70;99.90;;;;;;6285622;22;20034;-84
2023/10/31 20:22:43;;;;;;;54.83;32.45;;;13.80;99.90;;;;;;6288065;22;20020;-82
2023/10/31 20:25:17;;;;;;;47.53;29.75;;;13.80;99.90;;;;;;6282016;22;20036;-83
2023/10/31 20:27:50;;;;;;;46.88;27.23;;;13.70;99.90;;;;;;6318094;22;20065;-84
2023/10/31 20:30:31;;;;;;;45.97;31.05;;;13.80;99.90;;;;;;6319142;22;20083;-84
2023/10/31 20:33:00;;;;;;;48.95;30.73;;;13.60;99.90;;;;;;6280404;22;20039;-83
2023/10/31 20:35:28;;;;;;;53.58;31.08;;;13.50;99.90;;;;;;6279675;22;20022;-80
2023/10/31 20:38:07;;;;;;;46.10;29.63;;;13.30;99.90;;;;;;6278704;22;20022;-83
2023/10/31 20:40:46;;;;;;;50.10;31.58;;;13.20;99.90;;;;;;6316885;22;20019;-85
2023/10/31 20:43:14;;;;;;;51.28;31.67;;;13.20;99.90;;;;;;6279402;22;20022;-82
2023/10/31 20:45:43;;;;;;;51.80;32.10;;;13.10;99.90;;;;;;6279567;22;20076;-82
2023/10/31 20:48:11;;;;;;;53.00;31.92;;;13.10;99.90;;;;;;6280443;22;20024;-83
2023/10/31 20:50:39;;;;;;;49.92;32.25;;;13.10;99.90;;;;;;6281682;22;20439;-80
2023/10/31 20:53:07;;;;;;;50.60;31.98;;;13.00;99.90;;;;;;6318327;22;20011;-81
2023/10/31 20:55:36;;;;;;;50.50;31.65;;;13.00;99.90;;;;;;6303878;22;20022;-80
2023/10/31 20:58:11;;;;;;;54.88;33.75;;;13.00;99.90;;;;;;6278361;22;20019;-80
2023/10/31 21:21:02;;;;;;;220.88;140.75;;;12.50;99.90;;;;;;6223705;22;20101;-86
2023/10/31 21:23:29;;;;;;;30.58;17.92;;;12.40;99.90;;;;;;6315524;22;20523;-79
2023/10/31 21:25:57;;;;;;;36.63;22.30;;;12.40;99.90;;;;;;6315729;22;20038;-77
2023/10/31 21:28:24;;;;;;;46.13;26.30;;;12.50;99.90;;;;;;6319337;22;20042;-80
2023/10/31 21:30:53;;;;;;;52.22;30.55;;;12.40;99.90;;;;;;6322387;22;20368;-79
2023/10/31 21:33:23;;;;;;;43.53;26.50;;;12.40;99.90;;;;;;6288947;22;20090;-81
2023/10/31 21:35:51;;;;;;;36.95;22.58;;;12.30;99.90;;;;;;6294704;22;20336;-78
2023/10/31 21:38:20;;;;;;;29.80;18.98;;;12.30;99.90;;;;;;6293984;22;20019;-77
2023/10/31 21:40:48;;;;;;;25.27;14.45;;;12.40;99.90;;;;;;6330522;22;20022;-79
2023/10/31 21:43:15;;;;;;;21.75;12.10;;;12.40;99.90;;;;;;6284826;22;20023;-80
2023/10/31 21:45:43;;;;;;;26.35;15.45;;;12.40;99.90;;;;;;6283085;22;20011;-77
2023/10/31 21:48:10;;;;;;;30.38;15.63;;;12.50;99.90;;;;;;6320430;22;20039;-81
2023/10/31 21:50:38;;;;;;;30.65;16.77;;;12.40;99.90;;;;;;6319901;22;20043;-79
2023/10/31 21:53:05;;;;;;;28.92;18.50;;;12.40;99.90;;;;;;6315420;22;20007;-79
2023/10/31 21:55:50;;;;;;;32.78;18.48;;;12.40;99.90;;;;;;6317414;22;20505;-79
2023/10/31 21:58:17;;;;;;;35.08;21.38;;;12.30;99.90;;;;;;6277817;22;20361;-78
2023/10/31 22:00:45;;;;;;;32.75;19.20;;;12.20;99.90;;;;;;6314603;22;20084;-80
2023/10/31 22:03:13;;;;;;;34.08;20.48;;;12.20;99.90;;;;;;6315507;22;20098;-79
2023/10/31 22:05:40;;;;;;;33.38;20.50;;;12.20;99.90;;;;;;6277159;22;20020;-80
2023/10/31 22:08:08;;;;;;;37.13;21.77;;;12.10;99.90;;;;;;6276113;22;20069;-80
2023/10/31 22:10:35;;;;;;;37.10;21.60;;;12.10;99.90;;;;;;6276387;22;20044;-79
2023/10/31 22:13:04;;;;;;;33.60;21.70;;;12.00;99.90;;;;;;6314163;22;20011;-78
2023/10/31 22:15:32;;;;;;;37.70;22.05;;;12.10;99.90;;;;;;6313809;22;20011;-77
2023/10/31 22:18:00;;;;;;;34.40;21.83;;;12.00;99.90;;;;;;6313722;22;20628;-79
2023/10/31 22:20:27;;;;;;;38.78;22.73;;;12.00;99.90;;;;;;6276573;22;20011;-79
2023/10/31 22:22:54;;;;;;;37.22;23.05;;;12.00;99.90;;;;;;6314446;22;20061;-80
2023/10/31 22:25:22;;;;;;;34.17;19.98;;;12.10;99.90;;;;;;6313658;22;20007;-80
2023/10/31 22:27:49;;;;;;;38.55;22.73;;;12.10;99.90;;;;;;6313836;22;20049;-78
2023/10/31 22:30:18;;;;;;;39.95;22.02;;;12.00;99.90;;;;;;6313633;22;20035;-78
2023/10/31 22:32:46;;;;;;;36.33;23.08;;;11.90;99.90;;;;;;6275369;22;20102;-79
2023/10/31 22:35:14;;;;;;;40.40;23.48;;;12.00;99.90;;;;;;6276269;22;20106;-79
2023/10/31 22:37:43;;;;;;;39.97;23.33;;;11.90;99.90;;;;;;6275442;22;20023;-78
2023/10/31 22:40:11;;;;;;;34.17;20.83;;;11.80;99.90;;;;;;6313893;22;20041;-78
2023/10/31 22:42:39;;;;;;;39.05;21.20;;;11.90;99.90;;;;;;6313163;22;20068;-81
2023/10/31 22:45:08;;;;;;;39.78;23.25;;;11.90;99.90;;;;;;6314386;22;20026;-78
2023/10/31 22:47:38;;;;;;;40.13;23.02;;;11.80;99.90;;;;;;6313648;22;20746;-79
2023/10/31 22:50:08;;;;;;;35.17;22.48;;;11.70;99.90;;;;;;6315762;22;20019;-78
2023/10/31 22:52:36;;;;;;;35.03;21.40;;;11.80;99.90;;;;;;6315063;22;20012;-78
2023/10/31 22:58:29;;;;;;;29.75;20.33;;;11.70;99.90;;;;;;6332218;22;20064;-80
2023/10/31 23:00:56;;;;;;;34.72;20.58;;;11.70;99.90;;;;;;6327955;22;20038;-80
2023/10/31 23:03:26;;;;;;;30.17;19.90;;;11.80;99.90;;;;;;6276296;22;20106;-77
2023/10/31 23:05:55;;;;;;;28.73;19.02;;;11.70;99.90;;;;;;6276417;22;20011;-78
2023/10/31 23:08:26;;;;;;;34.28;19.23;;;11.70;99.90;;;;;;6275903;22;20023;-77
2023/10/31 23:10:55;;;;;;;34.83;20.05;;;11.60;99.90;;;;;;6313784;22;20019;-79